Time;durP1;ratioP1;P1;durP2;ratioP2;P2;SDS_P1;SDS_P2;PMS_P1;PMS_P2;Temp;Humidity;BMP_temperature;BMP_pressure;BME280_temperature;BME280_humidity;BME280_pressure;Samples;Min_cycle;Max_cycle;Signal;HPM_P1;HPM_P2
2023/04/14 00:02:10;;;;;;;10.90;6.10;;;;;;;-141.97;56.01;47378.78;5031815;28;20223;-81
2023/04/14 00:04:36;;;;;;;11.23;6.57;;;;;;;-141.97;56.17;47605.56;5031727;28;20649;-82
2023/04/14 00:07:01;;;;;;;12.07;6.80;;;;;;;-141.97;56.31;47538.28;5032091;28;20169;-81
2023/04/14 00:09:27;;;;;;;10.30;6.83;;;;;;;-141.97;56.70;47680.53;5032006;28;20648;-82
2023/04/14 00:11:56;;;;;;;12.40;7.57;;;;;;;-141.97;56.92;47494.09;5031935;28;20190;-81
2023/04/14 00:14:21;;;;;;;11.43;7.67;;;;;;;-141.97;57.50;47305.75;5031426;28;20154;-81
2023/04/14 00:16:47;;;;;;;13.43;8.00;;;;;;;-141.97;57.77;47449.88;5031254;28;20284;-82
2023/04/14 00:19:13;;;;;;;13.37;8.10;;;;;;;-141.97;57.41;47349.94;5031152;28;20154;-82
2023/04/14 00:21:38;;;;;;;13.53;8.20;;;;;;;-141.97;57.78;47522.91;5031709;28;20229;-83
2023/04/14 00:24:04;;;;;;;16.97;8.27;;;;;;;-141.97;58.26;47603.66;5032293;28;20170;-80
2023/04/14 00:26:30;;;;;;;12.67;8.63;;;;;;;-141.97;58.25;47561.38;5032059;28;20205;-81
2023/04/14 00:28:57;;;;;;;12.87;8.57;;;;;;;-141.97;58.71;47338.41;5032114;28;20675;-80
2023/04/14 00:31:23;;;;;;;14.30;8.90;;;;;;;-141.97;58.66;47509.47;5013868;28;20284;-81
2023/04/14 00:33:49;;;;;;;12.80;8.33;;;;;;;-141.97;58.68;47465.25;5014395;28;20201;-81
2023/04/14 00:36:14;;;;;;;14.67;8.50;;;;;;;-141.97;58.27;47565.22;5030648;28;20228;-82
2023/04/14 00:38:40;;;;;;;13.70;8.60;;;;;;;-141.97;58.11;47642.09;5032561;28;20605;-81
2023/04/14 00:41:05;;;;;;;12.67;8.20;;;;;;;-141.97;57.60;47605.56;5031300;28;20630;-82
2023/04/14 00:43:31;;;;;;;11.33;8.00;;;;;;;-141.97;57.81;47492.16;5031100;28;20158;-81
2023/04/14 00:45:56;;;;;;;12.60;8.23;;;;;;;-141.97;57.77;47461.41;5031494;28;20242;-82
2023/04/14 00:48:22;;;;;;;12.90;8.07;;;;;;;-141.97;57.50;47642.09;5031933;28;20653;-82
2023/04/14 00:50:47;;;;;;;13.67;8.30;;;;;;;-141.97;57.44;47530.59;5031864;28;20571;-81
2023/04/14 00:53:13;;;;;;;11.97;7.53;;;;;;;-141.97;57.14;47553.69;5031623;28;20166;-81
2023/04/14 00:55:40;;;;;;;12.50;7.30;;;;;;;-141.97;56.71;47649.78;5032006;28;20669;-82
2023/04/14 00:58:07;;;;;;;13.83;7.80;;;;;;;-141.97;56.59;47538.28;5031964;28;20163;-82
2023/04/14 01:00:34;;;;;;;13.33;7.20;;;;;;;-141.97;56.78;47532.53;5032973;28;20173;-83
2023/04/14 01:02:59;;;;;;;13.13;7.40;;;;;;;-141.97;56.45;47547.91;5036584;28;20169;-81
2023/04/14 01:05:25;;;;;;;10.87;7.00;;;;;;;-141.97;56.28;47642.09;5032503;28;20170;-81
2023/04/14 01:07:51;;;;;;;9.40;6.10;;;;;;;-141.97;55.74;47619.03;5032632;28;20166;-81
2023/04/14 01:10:16;;;;;;;9.80;6.50;;;;;;;-141.97;55.58;47559.44;5032151;28;20676;-82
2023/04/14 01:12:46;;;;;;;8.67;5.77;;;;;;;-141.97;55.64;47549.84;5033775;28;20162;-82
2023/04/14 01:15:34;;;;;;;9.20;6.20;;;;;;;-141.97;55.46;47503.69;5017706;28;20177;-81
2023/04/14 01:18:02;;;;;;;9.63;5.90;;;;;;;-141.97;55.18;47553.69;5017146;28;20201;-82
2023/04/14 01:20:41;;;;;;;9.90;6.10;;;;;;;-141.97;54.75;47594.03;5033776;28;20229;-82
2023/04/14 01:23:11;;;;;;;10.03;6.50;;;;;;;-141.97;54.90;47592.13;5034465;28;20561;-82
2023/04/14 01:26:02;;;;;;;9.50;6.40;;;;;;;-141.97;54.42;47561.38;5016562;28;20204;-82
2023/04/14 01:28:33;;;;;;;10.13;6.00;;;;;;;-141.97;54.73;47549.84;5034508;28;20180;-83
2023/04/14 01:31:25;;;;;;;10.23;5.83;;;;;;;-141.97;55.06;47536.38;5018283;28;20235;-83
2023/04/14 01:34:11;;;;;;;11.20;5.90;;;;;;;-141.97;54.84;47532.53;5035995;28;20166;-83
2023/04/14 01:36:41;;;;;;;9.20;5.70;;;;;;;-141.97;54.68;47676.69;5035877;28;20178;-82
2023/04/14 01:39:11;;;;;;;9.20;6.10;;;;;;;-141.97;54.63;47417.22;5021678;28;20182;-82
2023/04/14 01:41:41;;;;;;;9.93;5.70;;;;;;;-141.97;54.36;47557.53;5015681;28;20194;-82
2023/04/14 01:44:10;;;;;;;9.13;5.80;;;;;;;-141.97;54.48;47559.44;5016269;28;20176;-83
2023/04/14 01:46:37;;;;;;;10.07;5.50;;;;;;;-141.97;54.60;47522.91;5016531;28;20193;-82
2023/04/14 01:49:03;;;;;;;10.83;6.20;;;;;;;-141.97;54.32;47522.91;5017178;28;20225;-81
2023/04/14 01:51:32;;;;;;;7.77;5.77;;;;;;;-141.97;54.47;47390.31;5018092;28;20215;-80
2023/04/14 01:54:00;;;;;;;9.43;5.63;;;;;;;-141.97;54.41;47521.00;5006877;28;20179;-82
2023/04/14 01:56:26;;;;;;;9.70;5.90;;;;;;;-141.97;54.31;47638.25;5018223;28;20634;-82
2023/04/14 01:58:55;;;;;;;9.90;6.00;;;;;;;-141.97;54.64;47432.59;5018614;28;20194;-82
2023/04/14 02:01:21;;;;;;;11.17;6.10;;;;;;;-141.97;54.79;47413.38;5028010;28;20166;-82
2023/04/14 02:03:50;;;;;;;11.70;5.73;;;;;;;-141.97;54.69;47398.00;5018793;28;20166;-82
2023/04/14 02:06:16;;;;;;;8.40;5.80;;;;;;;-141.97;54.96;47419.13;5017020;28;20254;-82
2023/04/14 02:08:43;;;;;;;9.43;6.13;;;;;;;-141.97;54.42;47357.63;5016306;28;20174;-82
2023/04/14 02:11:11;;;;;;;10.00;5.93;;;;;;;-141.97;54.35;47365.31;5021033;28;20205;-82
2023/04/14 02:13:40;;;;;;;8.13;5.97;;;;;;;-141.97;54.55;47522.91;5036241;28;20174;-82
2023/04/14 02:16:09;;;;;;;12.20;6.03;;;;;;;-141.97;54.54;47603.66;5035790;28;20166;-82
2023/04/14 02:18:40;;;;;;;11.50;6.20;;;;;;;-141.97;54.66;47497.94;5035851;28;20163;-84
2023/04/14 02:21:07;;;;;;;10.17;6.10;;;;;;;-141.97;54.37;47584.44;5018836;28;20229;-84
2023/04/14 02:23:32;;;;;;;9.33;5.97;;;;;;;-141.97;54.35;47419.13;5035965;28;20669;-84
2023/04/14 02:26:06;;;;;;;8.63;5.70;;;;;;;-141.97;54.26;47580.59;5038210;28;20158;-84
2023/04/14 02:28:36;;;;;;;12.37;5.80;;;;;;;-141.97;54.53;47530.59;5022448;28;20224;-84
2023/04/14 02:31:08;;;;;;;10.73;6.17;;;;;;;-141.97;54.36;47569.06;5033673;28;20213;-84
2023/04/14 02:33:36;;;;;;;10.70;5.90;;;;;;;-141.97;54.37;47526.75;5033812;28;20166;-83
2023/04/14 02:36:23;;;;;;;9.33;5.50;;;;;;;-141.97;55.09;47547.91;5015981;28;20201;-84
2023/04/14 02:38:56;;;;;;;10.40;6.43;;;;;;;-141.97;55.27;47522.91;5032953;28;20316;-84
2023/04/14 02:41:28;;;;;;;9.40;6.00;;;;;;;-141.97;55.20;47561.38;5034492;28;20162;-84
2023/04/14 02:44:06;;;;;;;12.60;6.00;;;;;;;-141.97;55.17;47546.00;5032557;28;20685;-84
2023/04/14 02:46:38;;;;;;;12.57;6.63;;;;;;;-141.97;55.58;47515.22;5032911;28;20162;-84
2023/04/14 02:49:06;;;;;;;12.23;6.87;;;;;;;-141.97;55.87;47669.00;5033573;28;20197;-84
2023/04/14 02:51:35;;;;;;;134.17;77.33;;;;;;;-141.97;56.03;47524.84;5034066;28;20197;-84
2023/04/14 02:54:02;;;;;;;560.93;342.80;;;;;;;-141.97;56.94;47403.75;5033619;28;20166;-84
2023/04/14 02:56:29;;;;;;;406.17;207.80;;;;;;;-141.97;58.12;47403.75;5033136;28;20560;-84
2023/04/14 02:58:55;;;;;;;172.40;88.93;;;;;;;-141.97;58.96;47526.75;5033159;28;20166;-84
2023/04/14 03:01:21;;;;;;;147.83;78.00;;;;;;;-141.97;60.08;47632.47;5032524;28;20162;-83
2023/04/14 03:03:48;;;;;;;92.47;48.03;;;;;;;-141.97;61.10;47644.00;5032750;28;20178;-84
2023/04/14 03:06:15;;;;;;;39.27;20.37;;;;;;;-141.97;62.20;47572.91;5015484;28;20181;-83
2023/04/14 03:08:42;;;;;;;39.13;21.20;;;;;;;-141.97;63.07;47413.38;5016097;28;20166;-83
2023/04/14 03:11:09;;;;;;;30.33;17.73;;;;;;;-141.97;63.45;47503.69;5034744;28;20627;-83
2023/04/14 03:13:36;;;;;;;29.93;17.83;;;;;;;-141.97;63.20;47634.41;5034080;28;20178;-83
2023/04/14 03:16:04;;;;;;;28.03;15.77;;;;;;;-141.97;63.14;47615.19;5033546;28;20208;-83
2023/04/14 03:18:31;;;;;;;27.77;12.97;;;;;;;-141.97;62.87;47615.19;5033060;28;20649;-84
2023/04/14 03:21:00;;;;;;;24.10;12.23;;;;;;;-141.97;62.67;47624.78;5033305;28;20225;-84
2023/04/14 03:23:26;;;;;;;27.80;12.37;;;;;;;-141.97;62.40;47415.28;5033324;28;20166;-84
2023/04/14 03:25:54;;;;;;;32.03;15.90;;;;;;;-141.97;62.26;47530.59;5032761;28;20669;-84
2023/04/14 03:28:23;;;;;;;35.17;17.97;;;;;;;-141.97;62.32;47659.38;5033362;28;20249;-83
2023/04/14 03:30:52;;;;;;;43.50;21.60;;;;;;;-141.97;62.83;47384.53;5033176;28;20197;-83
2023/04/14 03:33:22;;;;;;;49.07;23.23;;;;;;;-141.97;62.39;47517.16;5016010;28;20181;-83
2023/04/14 03:35:49;;;;;;;49.90;23.30;;;;;;;-141.97;62.72;47422.97;5033203;28;20154;-84
2023/04/14 03:38:15;;;;;;;43.10;20.43;;;;;;;-141.97;62.01;47394.16;5033747;28;20162;-84
2023/04/14 03:40:46;;;;;;;29.07;15.17;;;;;;;-141.97;61.39;47572.91;5033657;28;20158;-84
2023/04/14 03:43:18;;;;;;;37.80;18.83;;;;;;;-141.97;61.54;47442.19;5032109;28;20215;-84
2023/04/14 03:45:48;;;;;;;36.17;16.97;;;;;;;-141.97;61.52;47442.19;5013885;28;20178;-84
2023/04/14 03:48:17;;;;;;;15.93;8.77;;;;;;;-141.97;60.67;47513.31;5014791;28;20220;-83
2023/04/14 03:50:45;;;;;;;15.33;7.80;;;;;;;-141.97;59.60;47398.00;5033536;28;20190;-84
2023/04/14 03:53:13;;;;;;;26.60;11.87;;;;;;;-141.97;59.59;47659.38;5033434;28;20166;-83
2023/04/14 03:55:41;;;;;;;22.83;11.10;;;;;;;-141.97;60.04;47453.72;5033786;28;20181;-83
2023/04/14 03:58:10;;;;;;;14.73;8.13;;;;;;;-141.97;59.48;47422.97;5032992;28;20246;-83
2023/04/14 04:00:37;;;;;;;12.93;7.23;;;;;;;-141.97;58.56;47546.00;5016300;28;20170;-83
2023/04/14 04:03:04;;;;;;;10.77;6.70;;;;;;;-141.97;57.98;47611.34;5033708;28;20189;-84
2023/04/14 04:05:30;;;;;;;13.23;7.67;;;;;;;-141.97;57.52;47430.66;5033534;28;20161;-84
2023/04/14 04:08:02;;;;;;;15.60;6.90;;;;;;;-141.97;57.16;47513.31;5033800;28;20162;-84
2023/04/14 04:10:33;;;;;;;14.10;7.03;;;;;;;-141.97;56.85;47392.22;5033254;28;20206;-82
2023/04/14 04:13:01;;;;;;;11.50;6.40;;;;;;;-141.97;56.65;47565.22;5034212;28;20174;-83
2023/04/14 04:15:29;;;;;;;13.27;6.77;;;;;;;-141.97;55.96;47551.75;5034267;28;20170;-82
2023/04/14 04:17:57;;;;;;;10.10;6.70;;;;;;;-141.97;55.23;47632.47;5033678;28;20170;-83
2023/04/14 04:20:25;;;;;;;10.40;6.50;;;;;;;-141.97;55.01;47570.97;5032222;28;20345;-84
2023/04/14 04:22:54;;;;;;;11.57;6.83;;;;;;;-141.97;55.04;47513.31;5015582;28;20188;-83
2023/04/14 04:25:19;;;;;;;18.17;10.83;;;;;;;-141.97;54.66;47492.16;5033627;28;20634;-83
2023/04/14 04:27:45;;;;;;;11.70;6.83;;;;;;;-141.97;54.64;47451.81;5033560;28;20224;-84
2023/04/14 04:30:12;;;;;;;9.40;6.70;;;;;;;-141.97;54.56;47651.69;5033370;28;20173;-90
2023/04/14 04:32:38;;;;;;;12.13;6.80;;;;;;;-141.97;53.94;47532.53;5016345;28;20182;-83
2023/04/14 04:35:07;;;;;;;10.53;6.67;;;;;;;-141.97;53.43;47572.91;5015146;28;20263;-84
2023/04/14 04:37:34;;;;;;;12.60;6.60;;;;;;;-141.97;53.07;47547.91;5015244;28;20174;-83
2023/04/14 04:39:59;;;;;;;10.23;6.90;;;;;;;-141.97;52.40;47507.53;5032621;28;20185;-82
2023/04/14 04:42:25;;;;;;;16.47;8.73;;;;;;;-141.97;51.92;47536.38;5037530;28;20182;-84
2023/04/14 04:44:51;;;;;;;15.00;7.70;;;;;;;-141.97;51.41;47626.72;5024249;28;20202;-83
2023/04/14 04:47:16;;;;;;;9.57;6.57;;;;;;;-141.97;50.91;47521.00;5034979;28;20220;-83
2023/04/14 04:49:42;;;;;;;14.70;7.40;;;;;;;-141.97;50.72;47582.50;5018881;28;20220;-83
2023/04/14 04:52:07;;;;;;;11.27;7.10;;;;;;;-141.97;50.47;47505.63;5035398;28;20264;-83
2023/04/14 04:54:33;;;;;;;9.00;6.40;;;;;;;-141.97;49.92;47449.88;5036063;28;20202;-83
2023/04/14 04:56:58;;;;;;;10.50;6.37;;;;;;;-141.97;49.20;47442.19;5037674;28;20198;-83
2023/04/14 04:59:24;;;;;;;9.23;6.43;;;;;;;-141.97;49.88;47599.81;5037970;28;20186;-83
2023/04/14 05:01:49;;;;;;;11.53;6.47;;;;;;;-141.97;50.15;47453.72;5019067;28;20272;-83
2023/04/14 05:04:15;;;;;;;9.43;6.40;;;;;;;-141.97;49.54;47401.84;5036660;28;20166;-82
2023/04/14 05:06:41;;;;;;;11.73;6.60;;;;;;;-141.97;49.60;47449.88;5037132;28;20197;-83
2023/04/14 05:09:07;;;;;;;14.20;7.07;;;;;;;-141.97;49.43;47676.69;5018119;28;20178;-83
2023/04/14 05:11:32;;;;;;;9.67;6.97;;;;;;;-141.97;50.11;47513.31;5035223;28;20375;-83
2023/04/14 05:14:00;;;;;;;11.47;6.67;;;;;;;-141.97;50.09;47665.16;5036080;28;20166;-83
2023/04/14 05:16:27;;;;;;;10.23;6.50;;;;;;;-141.97;49.84;47630.56;5025067;28;20174;-84
2023/04/14 05:18:52;;;;;;;10.43;6.37;;;;;;;-141.97;50.42;47540.22;5039214;28;20182;-85
2023/04/14 05:21:18;;;;;;;10.93;6.40;;;;;;;-141.97;50.37;47655.53;5037078;28;20220;-84
2023/04/14 05:23:44;;;;;;;12.13;6.73;;;;;;;-141.97;50.23;47569.06;4999009;28;20182;-83
2023/04/14 05:26:11;;;;;;;11.47;6.13;;;;;;;-141.97;49.89;47384.53;5014847;28;20560;-83
2023/04/14 05:28:37;;;;;;;12.33;6.97;;;;;;;-141.97;50.07;47647.84;5017759;28;20178;-83
2023/04/14 05:31:05;;;;;;;18.47;8.50;;;;;;;-141.97;50.26;47540.22;5014972;28;20575;-84
2023/04/14 05:33:30;;;;;;;39.53;15.97;;;;;;;-141.97;50.58;47353.78;4997238;28;20197;-83
2023/04/14 05:35:56;;;;;;;45.93;17.37;;;;;;;-141.97;51.07;47584.44;4997983;28;20548;-83
2023/04/14 05:38:21;;;;;;;16.63;7.97;;;;;;;-141.97;50.90;47472.94;5013942;28;20182;-83
2023/04/14 05:40:47;;;;;;;13.73;7.30;;;;;;;-141.97;51.34;47417.22;5019591;28;20186;-81
2023/04/14 05:43:13;;;;;;;17.77;8.73;;;;;;;-141.97;51.41;47659.38;5015089;28;20178;-83
2023/04/14 05:45:39;;;;;;;11.50;7.47;;;;;;;-141.97;51.40;47676.69;5016496;28;20170;-85
2023/04/14 05:48:05;;;;;;;16.80;7.07;;;;;;;-141.97;50.74;47411.44;5015789;28;20166;-83
2023/04/14 05:50:32;;;;;;;10.57;6.73;;;;;;;-141.97;50.58;47428.75;5014447;28;20678;-83
2023/04/14 05:52:58;;;;;;;14.87;7.37;;;;;;;-141.97;50.09;47511.38;5014738;28;20308;-83
2023/04/14 05:55:24;;;;;;;12.20;7.53;;;;;;;-141.97;50.81;47553.69;4996545;28;20178;-84
2023/04/14 05:57:49;;;;;;;11.00;6.70;;;;;;;-141.97;50.49;47488.31;5013727;28;20171;-84
2023/04/14 06:00:16;;;;;;;12.33;6.90;;;;;;;-141.97;50.04;47580.59;4997136;28;20175;-84
2023/04/14 06:02:43;;;;;;;10.47;6.80;;;;;;;-141.97;49.83;47626.72;4996280;28;20183;-82
2023/04/14 06:05:09;;;;;;;11.00;7.37;;;;;;;-141.97;49.74;47588.28;5013786;28;20274;-84
2023/04/14 06:07:35;;;;;;;12.20;7.40;;;;;;;-141.97;50.25;47557.53;4996151;28;20175;-83
2023/04/14 06:10:01;;;;;;;12.43;7.20;;;;;;;-141.97;50.17;47546.00;5014547;28;20166;-84
2023/04/14 06:12:27;;;;;;;11.70;7.27;;;;;;;-141.97;50.35;47534.44;5012064;28;20190;-83
2023/04/14 06:14:52;;;;;;;12.10;7.23;;;;;;;-141.97;49.86;47394.16;5033687;28;20757;-82
2023/04/14 06:17:18;;;;;;;12.53;7.27;;;;;;;-141.97;49.56;47667.06;5032564;28;20638;-82
2023/04/14 06:19:45;;;;;;;12.57;7.90;;;;;;;-141.97;48.95;47511.38;5033408;28;20767;-82
2023/04/14 06:22:15;;;;;;;13.27;7.33;;;;;;;-141.97;48.53;47661.31;5032722;28;20173;-83
2023/04/14 06:24:41;;;;;;;12.20;7.20;;;;;;;-141.97;48.63;47561.38;5033520;28;20181;-82
2023/04/14 06:27:08;;;;;;;12.40;7.13;;;;;;;-141.97;48.54;47569.06;5002104;28;20342;-83
2023/04/14 06:29:33;;;;;;;13.50;7.07;;;;;;;-141.97;49.92;47440.28;5030561;28;20186;-82
2023/04/14 06:32:01;;;;;;;10.53;6.83;;;;;;;-141.97;50.75;47476.78;5014805;28;20213;-82
2023/04/14 06:34:26;;;;;;;12.90;6.70;;;;;;;-141.97;50.07;47524.84;5027153;28;20175;-82
2023/04/14 06:36:52;;;;;;;12.37;7.30;;;;;;;-141.97;49.70;47638.25;5012733;28;20171;-82
2023/04/14 06:39:19;;;;;;;10.50;6.60;;;;;;;-141.97;50.46;47619.03;5003470;28;20224;-82
2023/04/14 06:41:45;;;;;;;14.80;7.90;;;;;;;-141.97;49.98;47642.09;5013951;28;20225;-82
2023/04/14 06:44:11;;;;;;;12.13;7.60;;;;;;;-141.97;50.09;47409.53;5014342;28;20674;-82
2023/04/14 06:46:36;;;;;;;13.67;7.50;;;;;;;-141.97;50.10;47357.63;5014437;28;20178;-83
2023/04/14 06:49:03;;;;;;;13.40;7.17;;;;;;;-141.97;49.06;47459.50;5031284;28;20535;-83
2023/04/14 06:51:35;;;;;;;10.57;7.00;;;;;;;-141.97;48.24;47476.78;5033232;28;20207;-83
2023/04/14 06:54:01;;;;;;;12.40;7.57;;;;;;;-141.97;47.58;47638.25;5013720;28;20189;-82
2023/04/14 06:56:27;;;;;;;11.20;7.10;;;;;;;-141.97;47.97;47542.16;5031845;28;20228;-82
2023/04/14 06:58:55;;;;;;;12.57;7.33;;;;;;;-141.97;48.25;47663.22;5013823;28;20216;-83
2023/04/14 07:01:20;;;;;;;12.80;7.60;;;;;;;-141.97;48.24;47430.66;5033834;28;20304;-84
2023/04/14 07:03:52;;;;;;;12.37;7.90;;;;;;;-141.97;48.21;47449.88;5014140;28;20277;-83
2023/04/14 07:06:21;;;;;;;14.33;8.53;;;;;;;-141.97;48.66;47507.53;5033082;28;20182;-83
2023/04/14 07:08:47;;;;;;;14.97;8.50;;;;;;;-141.97;48.27;47661.31;5031506;28;20663;-82
2023/04/14 07:11:14;;;;;;;13.07;8.17;;;;;;;-141.97;48.01;47565.22;5028021;28;20273;-82
2023/04/14 07:13:40;;;;;;;12.50;7.73;;;;;;;-141.97;47.78;47549.84;5031684;28;20185;-81
2023/04/14 07:16:06;;;;;;;13.23;8.57;;;;;;;-141.97;47.18;47674.78;5035631;28;20174;-80
2023/04/14 07:18:32;;;;;;;13.97;8.40;;;;;;;-141.97;47.18;47595.97;5031323;28;20260;-82
2023/04/14 07:20:59;;;;;;;14.33;8.50;;;;;;;-141.97;47.00;47521.00;4978650;28;20248;-80
2023/04/14 07:23:24;;;;;;;14.40;8.60;;;;;;;-141.97;47.32;47642.09;4971984;28;20172;-79
2023/04/14 07:25:54;;;;;;;13.37;7.80;;;;;;;-141.97;47.21;47536.38;4973256;28;20246;-81
2023/04/14 07:28:21;;;;;;;12.27;8.30;;;;;;;-141.97;46.45;47536.38;4961881;28;20231;-81
2023/04/14 07:30:48;;;;;;;11.77;8.50;;;;;;;-141.97;46.37;47670.91;4971265;28;20600;-81
2023/04/14 07:33:17;;;;;;;14.23;8.13;;;;;;;-141.97;46.76;47396.06;4973756;28;20171;-82
2023/04/14 07:35:43;;;;;;;14.53;8.60;;;;;;;-141.97;46.70;47542.16;4973586;28;20164;-82
2023/04/14 07:38:09;;;;;;;14.57;9.70;;;;;;;-141.97;47.37;47392.22;4973314;28;20168;-82
2023/04/14 07:40:34;;;;;;;13.97;8.90;;;;;;;-141.97;47.24;47384.53;4972416;28;20199;-82
2023/04/14 07:43:00;;;;;;;12.27;8.50;;;;;;;-141.97;47.08;47453.72;4971029;28;20235;-82
2023/04/14 07:45:25;;;;;;;16.00;8.90;;;;;;;-141.97;47.28;47561.38;4973964;28;20215;-82
2023/04/14 07:47:51;;;;;;;16.17;9.30;;;;;;;-141.97;47.08;47557.53;4973499;28;20222;-83
2023/04/14 07:50:16;;;;;;;14.90;9.13;;;;;;;-141.97;48.06;47642.09;4973552;28;20175;-82
2023/04/14 07:52:42;;;;;;;16.60;9.40;;;;;;;-141.97;48.25;47434.50;4973956;28;20264;-81
2023/04/14 07:55:07;;;;;;;15.63;9.00;;;;;;;-141.97;48.27;47507.53;4973705;28;20172;-82
2023/04/14 07:57:33;;;;;;;16.13;9.33;;;;;;;-141.97;49.44;47471.03;4973073;28;20251;-82
2023/04/14 07:59:59;;;;;;;16.67;9.17;;;;;;;-141.97;49.00;47542.16;4972092;28;20590;-83
2023/04/14 08:02:24;;;;;;;14.57;9.47;;;;;;;-141.97;48.42;47509.47;4973069;28;20176;-83
2023/04/14 08:04:50;;;;;;;16.27;10.00;;;;;;;-141.97;48.41;47569.06;4971553;28;20184;-83
2023/04/14 08:07:16;;;;;;;20.30;11.00;;;;;;;-141.97;49.63;47553.69;4973419;28;20164;-83
2023/04/14 08:09:42;;;;;;;17.43;10.20;;;;;;;-141.97;51.08;47511.38;4972482;28;20270;-84
2023/04/14 08:12:08;;;;;;;13.90;9.53;;;;;;;-141.97;50.39;47519.06;4973237;28;20377;-83
2023/04/14 08:14:33;;;;;;;16.53;10.80;;;;;;;-141.97;49.90;47638.25;4988078;28;20597;-83
2023/04/14 08:16:58;;;;;;;16.20;9.70;;;;;;;-141.97;49.19;47482.56;4973031;28;20231;-81
2023/04/14 08:19:24;;;;;;;14.60;9.57;;;;;;;-141.97;48.55;47626.72;4993912;28;20284;-82
2023/04/14 08:21:50;;;;;;;15.80;9.53;;;;;;;-141.97;49.04;47549.84;5014644;28;20556;-83
2023/04/14 08:24:17;;;;;;;15.33;9.20;;;;;;;-141.97;48.35;47526.75;5016783;28;20174;-82
2023/04/14 08:26:42;;;;;;;15.20;10.07;;;;;;;-141.97;48.08;47472.94;5027961;28;20559;-82
2023/04/14 08:29:07;;;;;;;16.40;9.83;;;;;;;-141.97;47.75;47507.53;5006010;28;20520;-82
2023/04/14 08:31:33;;;;;;;15.23;9.73;;;;;;;-141.97;47.17;47472.94;5017698;28;20198;-82
2023/04/14 08:33:58;;;;;;;13.10;9.10;;;;;;;-141.97;46.91;47544.06;5019849;28;20238;-82
2023/04/14 08:36:24;;;;;;;14.13;9.03;;;;;;;-141.97;46.73;47488.31;5036459;28;20709;-82
2023/04/14 08:38:49;;;;;;;17.43;10.33;;;;;;;-141.97;46.94;47532.53;5036800;28;20166;-81
2023/04/14 08:41:18;;;;;;;16.73;10.23;;;;;;;-141.97;46.62;47501.78;5034448;28;20173;-82
2023/04/14 08:43:44;;;;;;;16.30;10.30;;;;;;;-141.97;46.86;47655.53;5036149;28;20249;-81
2023/04/14 08:46:10;;;;;;;16.47;9.93;;;;;;;-141.97;46.42;47499.84;5035462;28;20190;-82
2023/04/14 08:48:38;;;;;;;17.10;10.37;;;;;;;-141.97;46.63;47515.22;5021538;28;20184;-83
2023/04/14 08:51:12;;;;;;;15.33;9.67;;;;;;;-141.97;45.87;47524.84;5036465;28;20200;-82
2023/04/14 08:53:44;;;;;;;15.23;9.70;;;;;;;-141.97;45.03;47457.56;5027452;28;20185;-81
2023/04/14 08:56:12;;;;;;;17.23;10.03;;;;;;;-141.97;43.66;47511.38;5015605;28;20490;-82
2023/04/14 08:58:37;;;;;;;15.60;9.80;;;;;;;-141.97;42.73;47519.06;5016005;28;20179;-82
2023/04/14 09:01:03;;;;;;;15.13;10.07;;;;;;;-141.97;42.64;47478.72;5016229;28;20316;-82
2023/04/14 09:03:29;;;;;;;16.07;9.80;;;;;;;-141.97;42.93;47534.44;5015572;28;20251;-81
2023/04/14 09:05:55;;;;;;;15.47;10.33;;;;;;;-141.97;43.89;47517.16;5016167;28;20623;-81
2023/04/14 09:08:21;;;;;;;15.67;10.13;;;;;;;-141.97;46.02;47505.63;5019001;28;20244;-82
2023/04/14 09:10:47;;;;;;;15.83;9.63;;;;;;;-141.97;45.70;47647.84;5032719;28;20209;-81
2023/04/14 09:13:16;;;;;;;17.13;10.30;;;;;;;-141.97;45.58;47538.28;5032670;28;20189;-81
2023/04/14 09:15:42;;;;;;;18.93;10.37;;;;;;;-141.97;45.12;47507.53;5016319;28;20193;-81
2023/04/14 09:18:08;;;;;;;20.87;10.43;;;;;;;-141.97;46.67;47505.63;5031811;28;20634;-82
2023/04/14 09:20:34;;;;;;;18.00;10.23;;;;;;;-141.97;45.97;47530.59;4996273;28;20264;-82
2023/04/14 09:23:00;;;;;;;17.20;10.47;;;;;;;-141.97;47.46;47569.06;5013822;28;20221;-82
2023/04/14 09:25:26;;;;;;;17.43;9.60;;;;;;;-141.97;48.29;47511.38;5014083;28;20163;-82
2023/04/14 09:27:51;;;;;;;14.77;10.00;;;;;;;-141.97;46.68;47538.28;5006148;28;20719;-81
2023/04/14 09:30:17;;;;;;;16.17;10.37;;;;;;;-141.97;45.37;47669.00;5027396;28;20163;-81
2023/04/14 09:32:43;;;;;;;15.13;9.67;;;;;;;-141.97;44.80;47517.16;5024512;28;20187;-82
2023/04/14 09:35:12;;;;;;;16.37;10.33;;;;;;;-141.97;44.51;47503.69;5013780;28;20789;-82
2023/04/14 09:37:47;;;;;;;14.90;9.97;;;;;;;-141.97;43.49;47474.88;5013208;28;20550;-82
2023/04/14 09:40:29;;;;;;;15.17;9.90;;;;;;;-141.97;42.87;47434.50;5012218;28;20209;-81
2023/04/14 09:42:56;;;;;;;15.70;10.23;;;;;;;-141.97;44.51;47492.16;5022683;28;20175;-83
2023/04/14 09:45:21;;;;;;;19.90;11.43;;;;;;;-141.97;45.14;47474.88;5006283;28;20253;-82
2023/04/14 09:47:48;;;;;;;15.77;10.07;;;;;;;-141.97;44.36;47467.19;5022477;28;21029;-82
2023/04/14 09:50:13;;;;;;;15.00;9.70;;;;;;;-141.97;44.14;47480.63;5023665;28;20171;-81
2023/04/14 09:52:46;;;;;;;14.53;9.90;;;;;;;-141.97;46.18;47478.72;5023447;28;20170;-82
2023/04/14 09:55:14;;;;;;;15.80;9.77;;;;;;;-141.97;46.89;47446.03;5013457;28;20185;-79
2023/04/14 09:57:46;;;;;;;15.07;10.37;;;;;;;-141.97;46.50;47474.88;5026565;28;20218;-79
2023/04/14 10:00:15;;;;;;;14.17;9.33;;;;;;;-141.97;46.31;47513.31;4995091;28;20186;-79
2023/04/14 10:02:54;;;;;;;13.83;9.27;;;;;;;-141.97;46.83;47480.63;5013020;28;20167;-79
2023/04/14 10:05:24;;;;;;;13.97;8.67;;;;;;;-141.97;48.04;47496.00;5012869;28;20171;-81
2023/04/14 10:07:50;;;;;;;14.87;9.50;;;;;;;-141.97;47.49;47515.22;5013137;28;20175;-79
2023/04/14 10:10:15;;;;;;;13.93;9.00;;;;;;;-141.97;46.50;47496.00;5011610;28;20229;-79
2023/04/14 10:12:42;;;;;;;17.27;9.23;;;;;;;-141.97;45.46;47496.00;4994893;28;20233;-80
2023/04/14 10:15:09;;;;;;;13.33;7.93;;;;;;;-141.97;44.83;47526.75;5012372;28;20198;-79
2023/04/14 10:17:36;;;;;;;13.57;7.67;;;;;;;-141.97;44.05;47497.94;5013420;28;20185;-80
2023/04/14 10:20:04;;;;;;;13.47;7.83;;;;;;;-141.97;44.97;47521.00;5021958;28;20222;-80
2023/04/14 10:22:30;;;;;;;15.20;8.20;;;;;;;-141.97;45.71;47463.34;5022562;28;20277;-80
2023/04/14 10:24:58;;;;;;;13.87;7.70;;;;;;;-141.97;44.54;47459.50;5007318;28;20181;-79
2023/04/14 10:27:26;;;;;;;12.00;7.87;;;;;;;-141.97;43.51;47505.63;5022728;28;20239;-80
2023/04/14 10:29:55;;;;;;;13.83;8.60;;;;;;;-141.97;44.10;47496.00;5011680;28;20226;-83
2023/04/14 10:32:23;;;;;;;13.80;7.80;;;;;;;-141.97;43.43;47501.78;5025315;28;20190;-83
2023/04/14 10:35:11;;;;;;;15.47;7.90;;;;;;;-141.97;43.81;47534.44;5011009;28;20248;-83
2023/04/14 10:37:40;;;;;;;14.57;7.70;;;;;;;-141.97;42.89;47496.00;5019756;28;20709;-82
2023/04/14 10:40:07;;;;;;;13.63;7.70;;;;;;;-141.97;42.16;47480.63;5026043;28;20585;-80
2023/04/14 10:42:55;;;;;;;12.33;7.67;;;;;;;-141.97;41.73;47517.16;5021279;28;20674;-82
2023/04/14 10:45:21;;;;;;;13.73;8.03;;;;;;;-141.97;42.80;47519.06;5014911;28;20194;-80
2023/04/14 10:47:48;;;;;;;19.87;7.77;;;;;;;-141.97;42.80;47490.25;5034378;28;20213;-82
2023/04/14 10:50:16;;;;;;;12.13;7.90;;;;;;;-141.97;41.48;47482.56;5034350;28;20634;-79
2023/04/14 10:52:53;;;;;;;13.90;8.17;;;;;;;-141.97;40.58;47499.84;5034323;28;20170;-81
2023/04/14 10:55:24;;;;;;;11.77;7.87;;;;;;;-141.97;39.72;47465.25;5035887;28;20182;-82
2023/04/14 10:57:53;;;;;;;13.53;7.90;;;;;;;-141.97;39.77;47465.25;5035529;28;20201;-81
2023/04/14 11:00:18;;;;;;;15.23;8.40;;;;;;;-141.97;40.19;47492.16;5002822;28;20488;-82
2023/04/14 11:03:16;;;;;;;17.77;8.60;;;;;;;-141.97;40.43;47499.84;5014296;28;20525;-81
2023/04/14 11:05:48;;;;;;;12.47;8.00;;;;;;;-141.97;40.44;47453.72;4966155;28;20197;-82
2023/04/14 11:08:23;;;;;;;10.73;7.60;;;;;;;-141.97;40.87;47463.34;4951224;29;20236;-82
2023/04/14 11:10:58;;;;;;;13.63;7.50;;;;;;;-141.97;41.56;47469.09;4958532;28;20215;-83
2023/04/14 11:13:25;;;;;;;14.60;8.30;;;;;;;-141.97;41.38;47486.41;4962626;28;20194;-82